Kezdőlap
METAR-TAF:

METAR-TAF

Repülőterek :

Errachidia, Marokkó

földrajzi szélesség: 31-56N, földrajzi hosszúság: 004-24W, magasság: 1034 m

Jelenlegi meteorológiai megfigyelések

A jelentés 50 perccel ezelõtt készült, 23:00 UTC
Keleti szél 4 kt, kelet-északkeleti és délkeleti között változik
Hőmérséklet 28°C
Páratartalom 10%
Légköri nyomás 1020 hPa
Látótávolság 10 km, vagy több
felhőtlen 1500 m magasságban, és nincs gomolyfelhõ

METAR: GMFK 262300Z 10004KT 060V140 CAVOK 28/M06 Q1020 NOSIG

Idő: 00:50 (23:50 UTC)

Előrejelzés

A jelentés 50 perccel ezelõtt készült, 23:00 UTC
Az előrejelzés 27-én 00 óra UTC és 28-én 06 óra UTC között érvényes
Északi szél 9 kt
Látótávolság: 8000 m

TAF: GMFK 262300Z 2700/2806 36009KT 8000 NSC

Meteorológiai megfigyelések és előrejelzések több, mint 4000 repülőtéren (METAR és TAF jelentéseket).

A térképen piros és sárga pontok jelzik az elérhető meteorológiai állomásokat.

Mozgassa az egeret a pont fölött, hogy megjelenjen az állomás neve.

Azután kattintson az időjárási megfigyelések és előrejelzések megtekintéséhez.

A térkép megváltoztatása: kattintson a fekete keresztel jelölt zöld gombra ráközelítéshez, a vonallal jelölt zöld gombra távolításhoz, vagy a zöld nyilakra a szomszédos térképek eléréséhez.


METAR-TAF: